createdAt,value
2022-11-04T00:01:27.567Z,2.88
2022-11-04T00:04:29.862Z,2.55
2022-11-04T00:07:31.832Z,3.17
2022-11-04T00:10:33.723Z,3.70
2022-11-04T00:13:35.737Z,2.72
2022-11-04T00:16:37.868Z,3.35
2022-11-04T00:19:39.811Z,2.45
2022-11-04T00:22:42.468Z,3.13
2022-11-04T00:25:44.425Z,2.10
2022-11-04T00:28:46.344Z,2.88
2022-11-04T00:31:48.232Z,3.47
2022-11-04T00:34:50.256Z,2.60
2022-11-04T00:37:52.148Z,2.60
2022-11-04T00:40:54.019Z,3.20
2022-11-04T00:44:04.562Z,2.47
2022-11-04T00:47:06.519Z,2.80
2022-11-04T00:50:08.897Z,3.22
2022-11-04T00:53:11.180Z,1.90
2022-11-04T00:59:15.431Z,2.28
2022-11-04T01:02:17.457Z,2.90
2022-11-04T01:05:19.457Z,3.95
2022-11-04T01:08:21.334Z,3.85
2022-11-04T01:11:23.371Z,2.10
2022-11-04T01:14:25.368Z,4.85
2022-11-04T01:17:27.520Z,5.65
2022-11-04T01:20:29.500Z,2.75
2022-11-04T01:23:31.729Z,2.67
2022-11-04T01:26:36.101Z,3.80
2022-11-04T01:29:38.209Z,2.88
2022-11-04T01:32:40.136Z,3.88
2022-11-04T01:35:42.125Z,3.58
2022-11-04T01:38:44.626Z,3.03
2022-11-04T01:44:59.507Z,3.13
2022-11-04T01:48:17.746Z,3.08
2022-11-04T01:51:20.706Z,2.85
2022-11-04T01:54:25.297Z,2.28
2022-11-04T01:57:34.405Z,5.13
2022-11-04T02:00:42.150Z,3.08
2022-11-04T02:03:54.614Z,1.80
2022-11-04T02:07:14.637Z,4.10
2022-11-04T02:10:18.582Z,7.00
2022-11-04T02:13:20.768Z,4.63
2022-11-04T02:16:44.226Z,5.80
2022-11-04T02:19:59.296Z,4.50
2022-11-04T02:23:42.960Z,3.33
2022-11-04T02:27:20.842Z,2.90
2022-11-04T02:30:23.146Z,3.58
2022-11-04T02:33:35.494Z,4.05
2022-11-04T02:37:02.097Z,3.50
2022-11-04T02:40:10.633Z,4.43
2022-11-04T02:43:27.216Z,4.80
2022-11-04T02:46:41.645Z,2.78
2022-11-04T02:49:52.825Z,3.35
2022-11-04T02:53:03.736Z,3.38
2022-11-04T02:56:08.392Z,3.65
2022-11-04T02:59:16.153Z,2.92
2022-11-04T03:02:24.452Z,2.35
2022-11-04T03:05:33.034Z,4.03
2022-11-04T03:11:42.386Z,2.60
2022-11-04T03:14:52.045Z,4.05
2022-11-04T03:18:11.345Z,4.18
2022-11-04T03:21:15.444Z,4.53
2022-11-04T03:24:17.620Z,3.95
2022-11-04T03:27:30.340Z,3.15
2022-11-04T03:30:48.146Z,3.67
2022-11-04T03:33:52.290Z,3.53
2022-11-04T03:36:54.222Z,3.85
2022-11-04T03:39:56.448Z,3.55
2022-11-04T03:43:09.122Z,4.10
2022-11-04T03:46:11.610Z,4.43
2022-11-04T03:49:15.291Z,5.75
2022-11-04T03:52:18.805Z,5.75
2022-11-04T03:55:23.052Z,3.28
2022-11-04T03:58:47.006Z,2.85
2022-11-04T04:01:58.798Z,3.08
2022-11-04T04:05:06.903Z,3.83
2022-11-04T04:08:20.714Z,4.53
2022-11-04T04:11:51.711Z,3.67
2022-11-04T04:14:59.075Z,3.38
2022-11-04T04:18:10.661Z,3.88
2022-11-04T04:21:17.185Z,4.00
2022-11-04T04:24:23.393Z,3.05
2022-11-04T04:27:25.918Z,3.90
2022-11-04T04:30:28.349Z,4.60
2022-11-04T04:33:30.365Z,5.88
2022-11-04T04:37:00.014Z,4.85
2022-11-04T04:40:04.609Z,3.08
2022-11-04T04:43:09.900Z,3.08
2022-11-04T04:46:13.415Z,3.05
2022-11-04T04:49:15.372Z,5.90
2022-11-04T04:52:17.414Z,4.07
2022-11-04T04:55:19.405Z,5.32
2022-11-04T04:58:21.281Z,3.30
2022-11-04T05:01:23.633Z,3.35
2022-11-04T05:04:25.622Z,2.88
2022-11-04T05:07:27.788Z,1.92
2022-11-04T05:10:29.591Z,2.85
2022-11-04T05:13:32.121Z,3.72
2022-11-04T05:16:39.514Z,3.45
2022-11-04T05:22:44.400Z,5.68
2022-11-04T05:25:46.253Z,3.20
2022-11-04T05:28:48.115Z,4.10
2022-11-04T05:31:50.140Z,5.57
2022-11-04T05:34:51.970Z,4.50
2022-11-04T05:37:55.925Z,3.88
2022-11-04T05:40:58.550Z,3.17
2022-11-04T05:47:05.744Z,3.30
2022-11-04T05:50:07.975Z,5.40
2022-11-04T05:53:10.036Z,4.03
2022-11-04T05:56:12.457Z,5.22
2022-11-04T05:59:14.312Z,3.65
2022-11-04T06:02:16.266Z,3.30
2022-11-04T06:05:18.244Z,4.72
2022-11-04T06:08:20.066Z,5.10
2022-11-04T06:11:22.766Z,3.00
2022-11-04T06:14:24.633Z,3.88
2022-11-04T06:17:26.478Z,5.13
2022-11-04T06:20:28.379Z,4.57
2022-11-04T06:23:30.230Z,4.10
2022-11-04T06:26:32.081Z,4.57
2022-11-04T06:29:34.367Z,4.22
2022-11-04T06:32:36.353Z,3.22
2022-11-04T06:35:38.154Z,5.25
2022-11-04T06:38:40.288Z,5.35
2022-11-04T06:41:43.065Z,4.15
2022-11-04T06:44:47.757Z,7.55
2022-11-04T06:47:49.552Z,5.78
2022-11-04T06:50:51.741Z,6.15
2022-11-04T06:53:54.144Z,3.90
2022-11-04T06:56:56.165Z,4.70
2022-11-04T06:59:58.174Z,5.97
2022-11-04T07:03:00.055Z,5.28
2022-11-04T07:06:07.044Z,4.50
2022-11-04T07:09:11.677Z,4.95
2022-11-04T07:12:14.857Z,3.58
2022-11-04T07:15:16.881Z,3.65
2022-11-04T07:18:18.724Z,2.95
2022-11-04T07:21:20.666Z,5.47
2022-11-04T07:24:22.651Z,4.90
2022-11-04T07:27:24.641Z,4.10
2022-11-04T07:30:26.933Z,2.90
2022-11-04T07:33:28.838Z,5.85
2022-11-04T07:36:30.783Z,5.63
2022-11-04T07:39:32.649Z,4.15
2022-11-04T07:42:34.655Z,5.80
2022-11-04T07:45:41.844Z,3.78
2022-11-04T07:48:43.795Z,4.60
2022-11-04T07:51:45.798Z,4.20
2022-11-04T07:54:47.691Z,3.92
2022-11-04T07:57:49.527Z,4.15
2022-11-04T08:00:51.401Z,4.13
2022-11-04T08:03:53.335Z,4.10
2022-11-04T08:06:55.293Z,4.38
2022-11-04T08:09:57.118Z,6.43
2022-11-04T08:12:59.077Z,5.70
2022-11-04T08:16:13.006Z,3.65
2022-11-04T08:19:14.913Z,4.47
2022-11-04T08:22:16.883Z,5.20
2022-11-04T08:25:18.756Z,6.10
2022-11-04T08:28:28.299Z,5.28
2022-11-04T08:31:31.416Z,4.13
2022-11-04T08:34:33.526Z,5.13
2022-11-04T08:37:35.629Z,3.35
2022-11-04T08:40:37.585Z,3.65
2022-11-04T08:43:40.299Z,5.72
2022-11-04T08:46:43.968Z,4.93
2022-11-04T08:49:45.993Z,7.63
2022-11-04T08:52:48.022Z,5.90
2022-11-04T08:55:49.992Z,6.07
2022-11-04T08:58:53.161Z,5.32
2022-11-04T09:01:55.434Z,4.93
2022-11-04T09:04:57.541Z,11.98
2022-11-04T09:07:59.859Z,3.45
2022-11-04T09:11:01.844Z,5.07
2022-11-04T09:14:04.370Z,4.93
2022-11-04T09:17:06.386Z,4.25
2022-11-04T09:20:08.866Z,4.88
2022-11-04T09:23:11.440Z,5.43
2022-11-04T09:26:15.702Z,3.83
2022-11-04T09:29:17.751Z,5.25
2022-11-04T09:32:19.745Z,4.70
2022-11-04T09:35:24.845Z,2.75
2022-11-04T09:38:26.809Z,2.35
2022-11-04T09:41:46.660Z,1.67
2022-11-04T09:45:20.629Z,3.70
2022-11-04T09:48:34.252Z,5.03
2022-11-04T09:51:53.720Z,4.72
2022-11-04T09:55:10.640Z,5.78
2022-11-04T09:58:13.984Z,5.38
2022-11-04T10:01:19.289Z,5.35
2022-11-04T10:04:45.704Z,2.35
2022-11-04T10:07:59.676Z,3.28
2022-11-04T10:11:07.207Z,5.45
2022-11-04T10:14:32.738Z,4.35
2022-11-04T10:17:55.832Z,5.35
2022-11-04T10:21:07.857Z,3.17
2022-11-04T10:24:38.687Z,6.40
2022-11-04T10:27:44.699Z,5.18
2022-11-04T10:30:51.898Z,3.88
2022-11-04T10:34:17.855Z,4.28
2022-11-04T10:37:19.746Z,4.32
2022-11-04T10:40:29.554Z,4.43
2022-11-04T10:43:36.200Z,5.75
2022-11-04T10:46:38.804Z,5.15
2022-11-04T10:50:13.983Z,7.30
2022-11-04T10:53:27.392Z,3.22
2022-11-04T10:56:36.670Z,5.40
2022-11-04T10:59:53.832Z,3.78
2022-11-04T11:02:55.793Z,9.38
2022-11-04T11:06:30.817Z,4.15
2022-11-04T11:09:36.048Z,3.08
2022-11-04T11:12:50.986Z,4.72
2022-11-04T11:16:09.677Z,4.43
2022-11-04T11:19:11.766Z,3.90
2022-11-04T11:22:40.458Z,7.10
2022-11-04T11:25:50.119Z,7.38
2022-11-04T11:28:59.298Z,6.05
2022-11-04T11:32:02.376Z,6.07
2022-11-04T11:35:10.686Z,6.82
2022-11-04T11:38:25.637Z,6.07
2022-11-04T11:41:28.753Z,4.00
2022-11-04T11:44:42.691Z,6.10
2022-11-04T11:47:44.697Z,7.15
2022-11-04T12:03:20.924Z,5.05
2022-11-04T12:10:18.445Z,4.75
2022-11-04T12:14:02.701Z,4.70
2022-11-04T12:20:26.083Z,5.93
2022-11-04T12:23:39.680Z,4.82
2022-11-04T12:27:05.510Z,4.85
2022-11-04T12:30:08.978Z,3.65
2022-11-04T12:33:23.088Z,3.60
2022-11-04T12:36:29.593Z,3.97
2022-11-04T12:39:37.219Z,4.25
2022-11-04T12:42:39.094Z,5.32
2022-11-04T12:45:44.047Z,7.07
2022-11-04T12:48:58.367Z,3.78
2022-11-04T12:52:09.294Z,5.70
2022-11-04T12:55:16.817Z,2.95
2022-11-04T12:58:21.414Z,3.85
2022-11-04T13:01:35.062Z,5.25
2022-11-04T13:04:44.411Z,6.15
2022-11-04T13:08:08.644Z,2.88
2022-11-04T13:11:24.824Z,4.63
2022-11-04T13:14:57.175Z,5.35
2022-11-04T13:21:05.185Z,3.85
2022-11-04T13:24:18.146Z,4.97
2022-11-04T13:27:23.823Z,1.95
2022-11-04T13:30:55.106Z,5.55
2022-11-04T13:34:13.567Z,4.68
2022-11-04T13:37:33.928Z,6.00
2022-11-04T13:41:01.763Z,5.53
2022-11-04T13:44:13.025Z,4.07
2022-11-04T13:47:22.326Z,7.72
2022-11-04T13:50:36.291Z,4.25
2022-11-04T13:53:56.946Z,7.13
2022-11-04T13:57:27.093Z,7.47
2022-11-04T14:00:33.511Z,10.57
2022-11-04T14:03:50.567Z,5.45
2022-11-04T14:06:53.861Z,6.35
2022-11-04T14:09:55.887Z,6.00
2022-11-04T14:13:32.953Z,5.15
2022-11-04T14:16:39.400Z,4.20
2022-11-04T14:19:58.130Z,5.35
2022-11-04T14:23:04.941Z,5.20
2022-11-04T14:26:15.458Z,6.55
2022-11-04T14:29:25.829Z,7.95
2022-11-04T14:32:33.839Z,7.05
2022-11-04T14:35:36.409Z,10.75
2022-11-04T14:38:38.284Z,7.13
2022-11-04T14:41:40.206Z,7.40
2022-11-04T14:44:42.130Z,3.55
2022-11-04T14:47:48.724Z,6.35
2022-11-04T14:50:53.509Z,2.90
2022-11-04T14:54:17.057Z,3.60
2022-11-04T14:57:22.275Z,5.10
2022-11-04T15:00:35.225Z,4.05
2022-11-04T15:07:04.527Z,2.47
2022-11-04T15:10:28.316Z,3.30
2022-11-04T15:13:33.828Z,3.10
2022-11-04T15:16:35.842Z,3.13
2022-11-04T15:19:37.974Z,3.78
2022-11-04T15:22:44.802Z,3.60
2022-11-04T15:25:49.021Z,2.85
2022-11-04T15:28:52.364Z,3.13
2022-11-04T15:31:56.083Z,3.72
2022-11-04T15:34:58.523Z,4.28
2022-11-04T15:38:01.881Z,7.43
2022-11-04T15:41:06.268Z,4.75
2022-11-04T15:44:18.155Z,4.57
2022-11-04T15:47:19.984Z,6.70
2022-11-04T15:50:25.461Z,4.35
2022-11-04T15:53:27.344Z,7.53
2022-11-04T15:56:46.087Z,6.25
2022-11-04T16:00:17.558Z,3.97
2022-11-04T16:03:21.206Z,6.32
2022-11-04T16:06:40.133Z,8.95
2022-11-04T16:09:53.584Z,4.07
2022-11-04T16:12:56.841Z,5.88
2022-11-04T16:15:58.699Z,4.63
2022-11-04T16:19:00.756Z,5.47
2022-11-04T16:22:06.668Z,4.50
2022-11-04T16:25:19.850Z,8.02
2022-11-04T16:28:22.300Z,13.50
2022-11-04T16:31:33.658Z,9.90
2022-11-04T16:34:36.079Z,3.03
2022-11-04T16:37:38.003Z,6.00
2022-11-04T16:40:41.071Z,6.97
2022-11-04T16:43:43.046Z,6.68
2022-11-04T16:46:46.284Z,6.40
2022-11-04T16:49:48.124Z,9.52
2022-11-04T16:52:50.279Z,12.43
2022-11-04T16:55:54.311Z,15.32
2022-11-04T16:58:56.259Z,5.18
2022-11-04T17:01:58.530Z,6.10
2022-11-04T17:05:00.485Z,4.25
2022-11-04T17:08:05.124Z,3.55
2022-11-04T17:11:09.114Z,3.92
2022-11-04T17:14:10.992Z,6.93
2022-11-04T17:17:12.985Z,5.85
2022-11-04T17:20:17.951Z,7.68
2022-11-04T17:23:20.325Z,8.30
2022-11-04T17:26:25.198Z,9.40
2022-11-04T17:29:27.155Z,7.25
2022-11-04T17:32:35.141Z,6.00
2022-11-04T17:35:41.379Z,9.27
2022-11-04T17:38:43.307Z,7.60
2022-11-04T17:41:45.241Z,4.43
2022-11-04T17:44:47.085Z,4.13
2022-11-04T17:47:49.078Z,4.13
2022-11-04T17:50:52.682Z,5.50
2022-11-04T17:53:54.753Z,5.72
2022-11-04T17:56:57.782Z,3.83
2022-11-04T17:59:59.633Z,6.80
2022-11-04T18:03:01.538Z,6.13
2022-11-04T18:06:04.208Z,5.15
2022-11-04T18:09:09.699Z,5.82
2022-11-04T18:12:11.550Z,9.27
2022-11-04T18:15:14.920Z,7.38
2022-11-04T18:18:16.816Z,10.02
2022-11-04T18:21:19.033Z,9.88
2022-11-04T18:24:22.639Z,9.60
2022-11-04T18:27:24.669Z,11.35
2022-11-04T18:30:26.579Z,13.57
2022-11-04T18:33:28.423Z,13.00
2022-11-04T18:36:30.597Z,14.68
2022-11-04T18:39:33.720Z,13.75
2022-11-04T18:42:35.659Z,10.13
2022-11-04T18:45:37.628Z,10.68
2022-11-04T18:48:40.315Z,7.85
2022-11-04T18:54:44.252Z,4.82
2022-11-04T18:57:46.102Z,5.85
2022-11-04T19:00:50.452Z,6.70
2022-11-04T19:03:52.648Z,7.53
2022-11-04T19:06:54.581Z,6.80
2022-11-04T19:09:56.592Z,6.93
2022-11-04T19:12:58.476Z,5.03
2022-11-04T19:16:08.797Z,11.93
2022-11-04T19:19:15.326Z,4.80
2022-11-04T19:22:17.241Z,5.47
2022-11-04T19:25:19.127Z,7.90
2022-11-04T19:28:47.673Z,9.57
2022-11-04T19:31:44.800Z,10.15
2022-11-04T19:34:48.479Z,11.20
2022-11-04T19:37:50.408Z,13.77
2022-11-04T19:40:55.454Z,18.83
2022-11-04T19:44:00.663Z,13.95
2022-11-04T19:47:03.786Z,13.40
2022-11-04T19:50:06.082Z,10.93
2022-11-04T19:53:08.246Z,9.43
2022-11-04T19:56:17.347Z,10.43
2022-11-04T19:59:19.254Z,10.10
2022-11-04T20:02:21.244Z,12.00
2022-11-04T20:05:23.478Z,10.85
2022-11-04T20:08:25.352Z,15.85
2022-11-04T20:11:27.265Z,10.95
2022-11-04T20:14:32.830Z,11.65
2022-11-04T20:17:34.695Z,11.05
2022-11-04T20:20:36.643Z,11.90
2022-11-04T20:23:38.758Z,7.65
2022-11-04T20:26:41.899Z,6.85
2022-11-04T20:29:44.011Z,7.20
2022-11-04T20:32:45.929Z,9.07
2022-11-04T20:35:47.814Z,7.50
2022-11-04T20:38:50.026Z,9.25
2022-11-04T20:41:52.111Z,9.57
2022-11-04T20:44:53.908Z,8.68
2022-11-04T20:47:55.833Z,7.95
2022-11-04T20:50:58.132Z,7.65
2022-11-04T20:54:02.182Z,7.07
2022-11-04T20:57:04.084Z,8.02
2022-11-04T21:00:07.807Z,7.88
2022-11-04T21:03:09.919Z,9.98
2022-11-04T21:06:12.124Z,7.90
2022-11-04T21:09:15.662Z,8.70
2022-11-04T21:12:18.274Z,8.23
2022-11-04T21:18:21.998Z,8.93
2022-11-04T21:21:23.954Z,8.15
2022-11-04T21:24:25.953Z,9.38
2022-11-04T21:27:27.827Z,8.25
2022-11-04T21:30:33.080Z,6.18
2022-11-04T21:33:35.934Z,7.72
2022-11-04T21:36:41.893Z,6.40
2022-11-04T21:39:44.204Z,9.23
2022-11-04T21:42:46.133Z,6.18
2022-11-04T21:45:48.027Z,5.13
2022-11-04T21:48:50.162Z,7.55
2022-11-04T21:51:52.177Z,7.30
2022-11-04T21:54:54.030Z,6.38
2022-11-04T21:57:56.129Z,6.43
2022-11-04T22:00:58.821Z,6.13
2022-11-04T22:04:02.107Z,5.35
2022-11-04T22:07:03.986Z,6.53
2022-11-04T22:10:06.348Z,4.47
2022-11-04T22:13:08.576Z,5.40
2022-11-04T22:16:19.239Z,6.47
2022-11-04T22:19:21.178Z,4.43
2022-11-04T22:22:23.073Z,4.50
2022-11-04T22:25:24.903Z,5.90
2022-11-04T22:28:26.971Z,4.28
2022-11-04T22:31:34.773Z,4.57
2022-11-04T22:34:38.256Z,4.20
2022-11-04T22:37:40.067Z,5.47
2022-11-04T22:40:42.122Z,5.00
2022-11-04T22:43:44.177Z,5.03
2022-11-04T22:46:46.270Z,3.35
2022-11-04T22:49:48.114Z,3.83
2022-11-04T22:52:50.087Z,3.80
2022-11-04T22:55:52.625Z,3.30
2022-11-04T22:58:55.413Z,3.42
2022-11-04T23:01:57.550Z,4.40
2022-11-04T23:05:00.927Z,4.80
2022-11-04T23:08:02.790Z,3.80
2022-11-04T23:11:14.154Z,3.95
2022-11-04T23:14:21.027Z,5.43
2022-11-04T23:17:24.198Z,4.85
2022-11-04T23:20:26.171Z,3.78
2022-11-04T23:23:28.655Z,5.97
2022-11-04T23:29:34.115Z,5.38
2022-11-04T23:35:48.564Z,5.00
2022-11-04T23:38:50.988Z,5.00
2022-11-04T23:41:52.945Z,5.38
2022-11-04T23:44:57.529Z,5.03
2022-11-04T23:47:59.655Z,5.65
2022-11-04T23:51:02.502Z,4.03
2022-11-04T23:54:04.647Z,4.72
2022-11-04T23:57:13.711Z,5.85
